This is the latest recevied weather packets stored in our database for station/object KD5NDU-15. If no packets are shown the sender has not sent any weather packets the latest 10 day(s).
| Time | Temp. | Humidity | Pressure | Rain* | Wind** | Luminosity | Snow |
|---|---|---|---|---|---|---|---|
| 1778096808 | 16.11° C | 94% | 1010.6 hPa | 0 mm | - | 236 W/m² | - |
| 1778096508 | 16.11° C | 94% | 1010.5 hPa | 0 mm | - | 236 W/m² | - |
| 1778096208 | 16.11° C | 95% | 1010.6 hPa | 0 mm | - | 172 W/m² | - |
| 1778095910 | 16.11° C | 95% | 1010.6 hPa | 0 mm | - | 139 W/m² | - |
| 1778095608 | 16.11° C | 94% | 1010.7 hPa | 0 mm | - | 118 W/m² | - |
| 1778095308 | 16.11° C | 95% | 1010.7 hPa | 0 mm | - | 174 W/m² | - |
| 1778095010 | 16.11° C | 95% | 1010.8 hPa | 0 mm | - | 171 W/m² | - |
| 1778094708 | 16.11° C | 94% | 1010.6 hPa | 0 mm | - | 237 W/m² | - |
| 1778094408 | 16.11° C | 94% | 1010.6 hPa | 0 mm | - | 237 W/m² | - |
| 1778094108 | 16.11° C | 95% | 1010.6 hPa | 0 mm | - | 218 W/m² | - |
| 1778093837 | 16.11° C | 94% | 1010.7 hPa | 0 mm | - | 155 W/m² | - |
| 1778093512 | 16.11° C | 94% | 1010.6 hPa | 0 mm | - | 186 W/m² | - |
| 1778093208 | 16.11° C | 95% | 1010.6 hPa | 0 mm | - | 165 W/m² | - |
| 1778092912 | 16.11° C | 96% | 1010.3 hPa | 0 mm | - | 244 W/m² | - |
| 1778092635 | 16.11° C | 95% | 1010.3 hPa | 0 mm | - | 206 W/m² | - |
| 1778092308 | 16.11° C | 95% | 1010.3 hPa | 0 mm | - | 190 W/m² | - |
| 1778092008 | 16.11° C | 95% | 1010.6 hPa | 0 mm | - | 146 W/m² | - |
| 1778091708 | 16.11° C | 96% | 1010.6 hPa | 0 mm | - | 149 W/m² | - |
| 1778091408 | 16.11° C | 95% | 1010.6 hPa | 0 mm | - | 151 W/m² | - |
| 1778091108 | 16.11° C | 95% | 1010.8 hPa | 0 mm | - | 149 W/m² | - |
| 1778090810 | 16.11° C | 95% | 1010.7 hPa | 0 mm | - | 171 W/m² | - |
| 1778090508 | 16.11° C | 95% | 1010.6 hPa | 0 mm | - | 148 W/m² | - |
| 1778090208 | 16.67° C | 95% | 1010.6 hPa | 0 mm | - | 165 W/m² | - |
| 1778089910 | 16.67° C | 95% | 1010.4 hPa | 0 mm | - | 179 W/m² | - |
| 1778089608 | 16.67° C | 97% | 1010.6 hPa | 0 mm | - | 174 W/m² | - |
* Rain latest hour (hover to see other rain measurements)
** Current wind speed in m/s (hover to see current wind gust speed)